Terminal Aerodrome Forecast
Issued by NWS Northern Indiana

Home | Current Version | Previous Version | Text Only | Print | Product List | Glossary Off
Versions: 1 2 3 4 5 6 7 8 9 10 11 12 13 14 15 16 17 18 19 20

000
FTUS43 KIWX 292307 AAB
TAFFWA
TAF AMD
KFWA 292307Z 2923/3018 08011KT 5SM -SHRA BR VCTS BKN040CB
      TEMPO 2923/3001 18012G20KT 2SM TSRA BKN015CB OVC030
     FM300100 09007KT P6SM VCSH BKN040
     FM300500 09005KT 3SM BR BKN015
     FM301100 06004KT 1SM BR BKN010
     FM301400 11004KT P6SM BKN025=

USA.gov is the U.S. government's official web portal to all federal, state and local government web resources and services.